sensor_id;sensor_type;location;lat;lon;timestamp;P1;durP1;ratioP1;P2;durP2;ratioP2
56760;SDS011;42633;44.494;11.356;2023-04-03T06:18:20;19.20;;;7.83;;
56760;SDS011;42633;44.494;11.356;2023-04-03T06:22:25;10.85;;;7.10;;
56760;SDS011;42633;44.494;11.356;2023-04-03T06:25:59;14.80;;;7.85;;
56760;SDS011;42633;44.494;11.356;2023-04-03T06:43:57;18.13;;;8.45;;
56760;SDS011;42633;44.494;11.356;2023-04-03T06:47:06;18.67;;;11.05;;
56760;SDS011;42633;44.494;11.356;2023-04-03T06:50:25;19.45;;;9.65;;
56760;SDS011;42633;44.494;11.356;2023-04-03T06:53:36;13.40;;;9.32;;
56760;SDS011;42633;44.494;11.356;2023-04-03T07:12:06;13.43;;;8.75;;
56760;SDS011;42633;44.494;11.356;2023-04-03T07:31:10;15.32;;;9.27;;
56760;SDS011;42633;44.494;11.356;2023-04-03T07:41:05;17.80;;;11.02;;
56760;SDS011;42633;44.494;11.356;2023-04-03T11:09:15;3.28;;;1.90;;
56760;SDS011;42633;44.494;11.356;2023-04-03T11:12:49;6.10;;;2.40;;
56760;SDS011;42633;44.494;11.356;2023-04-03T11:21:24;5.47;;;1.55;;
56760;SDS011;42633;44.494;11.356;2023-04-03T11:25:06;6.57;;;1.90;;
56760;SDS011;42633;44.494;11.356;2023-04-03T11:28:46;6.40;;;2.35;;
56760;SDS011;42633;44.494;11.356;2023-04-03T11:36:26;9.55;;;2.55;;
56760;SDS011;42633;44.494;11.356;2023-04-03T11:50:54;4.18;;;1.92;;
56760;SDS011;42633;44.494;11.356;2023-04-03T11:58:04;7.93;;;4.03;;
56760;SDS011;42633;44.494;11.356;2023-04-03T12:01:48;7.65;;;1.50;;
56760;SDS011;42633;44.494;11.356;2023-04-03T12:11:37;4.35;;;2.00;;
56760;SDS011;42633;44.494;11.356;2023-04-03T12:14:42;8.23;;;1.55;;
56760;SDS011;42633;44.494;11.356;2023-04-03T12:17:52;19.73;;;2.00;;
56760;SDS011;42633;44.494;11.356;2023-04-03T12:20:59;5.07;;;1.40;;
56760;SDS011;42633;44.494;11.356;2023-04-03T12:30:34;7.90;;;1.95;;
56760;SDS011;42633;44.494;11.356;2023-04-03T12:37:02;4.15;;;1.75;;
56760;SDS011;42633;44.494;11.356;2023-04-03T12:40:51;9.82;;;3.00;;
56760;SDS011;42633;44.494;11.356;2023-04-03T12:48:25;2.65;;;1.33;;
56760;SDS011;42633;44.494;11.356;2023-04-03T12:51:49;3.05;;;1.40;;
56760;SDS011;42633;44.494;11.356;2023-04-03T12:55:33;4.55;;;1.85;;
56760;SDS011;42633;44.494;11.356;2023-04-03T12:58:57;8.40;;;5.07;;
56760;SDS011;42633;44.494;11.356;2023-04-03T13:02:27;5.82;;;2.60;;
56760;SDS011;42633;44.494;11.356;2023-04-03T13:05:34;2.53;;;1.55;;
56760;SDS011;42633;44.494;11.356;2023-04-03T13:08:55;1.45;;;1.23;;
56760;SDS011;42633;44.494;11.356;2023-04-03T13:12:14;3.67;;;1.50;;
56760;SDS011;42633;44.494;11.356;2023-04-03T13:15:42;10.32;;;2.60;;
56760;SDS011;42633;44.494;11.356;2023-04-03T13:19:17;4.13;;;1.35;;
56760;SDS011;42633;44.494;11.356;2023-04-03T13:22:49;2.03;;;1.20;;
56760;SDS011;42633;44.494;11.356;2023-04-03T13:26:03;6.22;;;2.40;;
56760;SDS011;42633;44.494;11.356;2023-04-03T13:30:03;2.70;;;1.55;;
56760;SDS011;42633;44.494;11.356;2023-04-03T13:33:36;3.47;;;2.10;;
56760;SDS011;42633;44.494;11.356;2023-04-03T13:36:54;6.65;;;2.10;;
56760;SDS011;42633;44.494;11.356;2023-04-03T13:43:19;3.03;;;1.50;;
56760;SDS011;42633;44.494;11.356;2023-04-03T13:46:44;5.20;;;1.85;;
56760;SDS011;42633;44.494;11.356;2023-04-03T13:57:23;6.13;;;3.30;;
56760;SDS011;42633;44.494;11.356;2023-04-03T14:05:20;3.33;;;1.63;;
56760;SDS011;42633;44.494;11.356;2023-04-03T14:08:25;4.85;;;1.42;;
56760;SDS011;42633;44.494;11.356;2023-04-03T14:11:57;6.30;;;2.00;;
56760;SDS011;42633;44.494;11.356;2023-04-03T14:15:26;4.72;;;2.15;;
56760;SDS011;42633;44.494;11.356;2023-04-03T14:22:23;5.38;;;1.75;;
56760;SDS011;42633;44.494;11.356;2023-04-03T14:25:33;10.52;;;2.20;;
56760;SDS011;42633;44.494;11.356;2023-04-03T14:28:40;3.78;;;1.60;;
56760;SDS011;42633;44.494;11.356;2023-04-03T14:31:48;4.40;;;1.52;;
56760;SDS011;42633;44.494;11.356;2023-04-03T14:34:56;2.80;;;1.63;;
56760;SDS011;42633;44.494;11.356;2023-04-03T14:38:02;3.75;;;1.35;;
56760;SDS011;42633;44.494;11.356;2023-04-03T14:41:22;7.93;;;1.92;;
56760;SDS011;42633;44.494;11.356;2023-04-03T14:44:28;7.47;;;1.98;;
56760;SDS011;42633;44.494;11.356;2023-04-03T14:47:33;5.75;;;1.50;;
56760;SDS011;42633;44.494;11.356;2023-04-03T14:50:54;6.55;;;2.30;;
56760;SDS011;42633;44.494;11.356;2023-04-03T14:54:16;3.92;;;1.50;;
56760;SDS011;42633;44.494;11.356;2023-04-03T15:00:57;8.15;;;3.85;;
56760;SDS011;42633;44.494;11.356;2023-04-03T15:12:09;5.38;;;2.22;;
56760;SDS011;42633;44.494;11.356;2023-04-03T15:15:54;5.72;;;1.85;;
56760;SDS011;42633;44.494;11.356;2023-04-03T15:19:10;6.57;;;1.63;;
56760;SDS011;42633;44.494;11.356;2023-04-03T15:22:36;5.13;;;1.83;;
56760;SDS011;42633;44.494;11.356;2023-04-03T15:26:13;6.65;;;2.65;;
56760;SDS011;42633;44.494;11.356;2023-04-03T15:29:20;3.60;;;2.00;;
56760;SDS011;42633;44.494;11.356;2023-04-03T15:32:27;4.15;;;1.95;;
56760;SDS011;42633;44.494;11.356;2023-04-03T15:35:32;4.28;;;1.73;;
56760;SDS011;42633;44.494;11.356;2023-04-03T15:38:39;8.98;;;2.17;;
56760;SDS011;42633;44.494;11.356;2023-04-03T15:50:31;5.00;;;1.67;;
56760;SDS011;42633;44.494;11.356;2023-04-03T15:54:11;6.10;;;2.10;;
56760;SDS011;42633;44.494;11.356;2023-04-03T15:58:08;7.50;;;1.70;;
56760;SDS011;42633;44.494;11.356;2023-04-03T16:02:11;5.88;;;1.83;;
56760;SDS011;42633;44.494;11.356;2023-04-03T16:05:47;2.67;;;1.45;;
56760;SDS011;42633;44.494;11.356;2023-04-03T16:09:02;7.75;;;2.13;;
56760;SDS011;42633;44.494;11.356;2023-04-03T16:12:10;17.88;;;9.57;;
56760;SDS011;42633;44.494;11.356;2023-04-03T16:15:19;7.82;;;2.88;;
56760;SDS011;42633;44.494;11.356;2023-04-03T16:18:30;4.97;;;1.65;;
56760;SDS011;42633;44.494;11.356;2023-04-03T16:21:51;3.78;;;1.95;;
56760;SDS011;42633;44.494;11.356;2023-04-03T16:25:02;10.52;;;2.20;;
56760;SDS011;42633;44.494;11.356;2023-04-03T16:28:19;9.88;;;2.38;;
56760;SDS011;42633;44.494;11.356;2023-04-03T16:31:27;3.70;;;1.70;;
56760;SDS011;42633;44.494;11.356;2023-04-03T16:34:36;5.93;;;2.45;;
56760;SDS011;42633;44.494;11.356;2023-04-03T16:37:44;3.50;;;1.67;;
56760;SDS011;42633;44.494;11.356;2023-04-03T16:40:49;15.23;;;2.90;;
56760;SDS011;42633;44.494;11.356;2023-04-03T16:43:57;5.72;;;1.98;;
56760;SDS011;42633;44.494;11.356;2023-04-03T16:47:13;9.68;;;2.35;;
56760;SDS011;42633;44.494;11.356;2023-04-03T16:50:25;9.32;;;2.15;;
56760;SDS011;42633;44.494;11.356;2023-04-03T16:53:30;4.25;;;1.67;;
56760;SDS011;42633;44.494;11.356;2023-04-03T16:56:35;4.63;;;2.15;;
56760;SDS011;42633;44.494;11.356;2023-04-03T16:59:52;4.85;;;1.80;;
56760;SDS011;42633;44.494;11.356;2023-04-03T17:03:00;5.35;;;3.30;;
56760;SDS011;42633;44.494;11.356;2023-04-03T17:15:03;5.40;;;2.00;;
56760;SDS011;42633;44.494;11.356;2023-04-03T17:18:08;9.20;;;2.30;;
56760;SDS011;42633;44.494;11.356;2023-04-03T17:21:36;7.43;;;1.90;;
56760;SDS011;42633;44.494;11.356;2023-04-03T17:24:52;12.05;;;4.13;;
56760;SDS011;42633;44.494;11.356;2023-04-03T17:28:05;5.75;;;1.50;;
56760;SDS011;42633;44.494;11.356;2023-04-03T17:35:26;4.32;;;2.25;;
56760;SDS011;42633;44.494;11.356;2023-04-03T17:38:44;5.28;;;1.60;;
56760;SDS011;42633;44.494;11.356;2023-04-03T17:42:06;7.90;;;2.45;;
56760;SDS011;42633;44.494;11.356;2023-04-03T17:49:32;4.28;;;1.52;;
56760;SDS011;42633;44.494;11.356;2023-04-03T17:58:20;3.28;;;2.28;;
56760;SDS011;42633;44.494;11.356;2023-04-03T18:01:35;10.98;;;2.97;;
56760;SDS011;42633;44.494;11.356;2023-04-03T18:04:50;6.97;;;2.50;;
56760;SDS011;42633;44.494;11.356;2023-04-03T18:08:36;4.90;;;3.13;;
56760;SDS011;42633;44.494;11.356;2023-04-03T18:11:55;8.70;;;2.58;;
56760;SDS011;42633;44.494;11.356;2023-04-03T18:16:11;8.82;;;2.80;;
56760;SDS011;42633;44.494;11.356;2023-04-03T18:19:31;5.80;;;3.25;;
56760;SDS011;42633;44.494;11.356;2023-04-03T18:27:56;10.07;;;2.60;;
56760;SDS011;42633;44.494;11.356;2023-04-03T18:40:38;11.70;;;2.03;;
56760;SDS011;42633;44.494;11.356;2023-04-03T18:48:16;8.20;;;2.05;;
56760;SDS011;42633;44.494;11.356;2023-04-03T18:51:25;11.02;;;3.33;;
56760;SDS011;42633;44.494;11.356;2023-04-03T18:54:31;6.95;;;2.50;;
56760;SDS011;42633;44.494;11.356;2023-04-03T18:57:41;6.07;;;2.33;;
56760;SDS011;42633;44.494;11.356;2023-04-03T19:00:53;7.05;;;2.88;;
56760;SDS011;42633;44.494;11.356;2023-04-03T19:04:03;7.63;;;2.63;;
56760;SDS011;42633;44.494;11.356;2023-04-03T19:07:14;10.48;;;3.22;;
56760;SDS011;42633;44.494;11.356;2023-04-03T19:10:38;10.30;;;3.13;;
56760;SDS011;42633;44.494;11.356;2023-04-03T19:13:55;13.10;;;3.65;;
56760;SDS011;42633;44.494;11.356;2023-04-03T19:17:07;8.02;;;4.40;;
56760;SDS011;42633;44.494;11.356;2023-04-03T19:25:28;10.13;;;3.40;;
56760;SDS011;42633;44.494;11.356;2023-04-03T19:28:34;11.52;;;4.63;;
56760;SDS011;42633;44.494;11.356;2023-04-03T19:31:39;4.78;;;2.42;;
56760;SDS011;42633;44.494;11.356;2023-04-03T19:34:48;9.13;;;3.75;;
56760;SDS011;42633;44.494;11.356;2023-04-03T19:38:04;6.93;;;3.35;;
56760;SDS011;42633;44.494;11.356;2023-04-03T19:41:12;17.00;;;4.18;;
56760;SDS011;42633;44.494;11.356;2023-04-03T19:44:24;8.93;;;3.25;;
56760;SDS011;42633;44.494;11.356;2023-04-03T19:47:29;9.02;;;3.15;;
56760;SDS011;42633;44.494;11.356;2023-04-03T19:50:40;9.88;;;3.75;;
56760;SDS011;42633;44.494;11.356;2023-04-03T19:53:51;9.85;;;4.10;;
56760;SDS011;42633;44.494;11.356;2023-04-03T20:01:02;12.05;;;4.28;;
56760;SDS011;42633;44.494;11.356;2023-04-03T20:04:17;15.10;;;3.60;;
56760;SDS011;42633;44.494;11.356;2023-04-03T20:11:05;9.00;;;3.17;;
56760;SDS011;42633;44.494;11.356;2023-04-03T20:14:14;7.80;;;3.30;;
56760;SDS011;42633;44.494;11.356;2023-04-03T20:17:28;10.13;;;2.70;;
56760;SDS011;42633;44.494;11.356;2023-04-03T20:20:54;10.18;;;4.32;;
56760;SDS011;42633;44.494;11.356;2023-04-03T20:24:29;15.25;;;6.30;;
56760;SDS011;42633;44.494;11.356;2023-04-03T20:27:40;14.48;;;8.32;;
56760;SDS011;42633;44.494;11.356;2023-04-03T20:34:45;12.50;;;4.65;;
56760;SDS011;42633;44.494;11.356;2023-04-03T20:38:19;8.38;;;3.38;;
56760;SDS011;42633;44.494;11.356;2023-04-03T20:41:55;15.70;;;3.70;;
56760;SDS011;42633;44.494;11.356;2023-04-03T20:46:06;6.47;;;3.05;;
56760;SDS011;42633;44.494;11.356;2023-04-03T20:49:50;13.77;;;4.32;;
56760;SDS011;42633;44.494;11.356;2023-04-03T20:52:56;16.73;;;7.03;;
56760;SDS011;42633;44.494;11.356;2023-04-03T20:56:03;9.75;;;3.35;;
56760;SDS011;42633;44.494;11.356;2023-04-03T20:59:11;10.65;;;3.83;;
56760;SDS011;42633;44.494;11.356;2023-04-03T21:02:18;17.45;;;8.43;;
56760;SDS011;42633;44.494;11.356;2023-04-03T21:05:26;13.85;;;3.10;;
56760;SDS011;42633;44.494;11.356;2023-04-03T21:22:19;12.43;;;4.05;;
56760;SDS011;42633;44.494;11.356;2023-04-03T21:25:26;7.85;;;3.88;;
56760;SDS011;42633;44.494;11.356;2023-04-03T21:28:31;10.98;;;3.97;;
56760;SDS011;42633;44.494;11.356;2023-04-03T21:31:46;11.73;;;3.97;;
56760;SDS011;42633;44.494;11.356;2023-04-03T21:34:52;15.32;;;4.60;;
56760;SDS011;42633;44.494;11.356;2023-04-03T21:37:56;9.45;;;4.43;;
56760;SDS011;42633;44.494;11.356;2023-04-03T21:41:06;14.65;;;4.05;;
56760;SDS011;42633;44.494;11.356;2023-04-03T21:44:12;11.48;;;4.53;;
56760;SDS011;42633;44.494;11.356;2023-04-03T21:47:19;33.10;;;16.80;;
56760;SDS011;42633;44.494;11.356;2023-04-03T21:50:25;19.50;;;6.50;;
56760;SDS011;42633;44.494;11.356;2023-04-03T21:53:29;8.35;;;4.18;;
56760;SDS011;42633;44.494;11.356;2023-04-03T21:56:36;16.20;;;4.32;;
56760;SDS011;42633;44.494;11.356;2023-04-03T21:59:44;12.35;;;4.30;;
56760;SDS011;42633;44.494;11.356;2023-04-03T22:02:57;18.13;;;4.07;;
56760;SDS011;42633;44.494;11.356;2023-04-03T22:06:02;12.77;;;4.60;;
56760;SDS011;42633;44.494;11.356;2023-04-03T22:09:07;10.27;;;3.92;;
56760;SDS011;42633;44.494;11.356;2023-04-03T22:12:19;14.57;;;4.15;;
56760;SDS011;42633;44.494;11.356;2023-04-03T22:15:29;10.80;;;4.68;;
56760;SDS011;42633;44.494;11.356;2023-04-03T22:18:41;10.48;;;4.03;;
56760;SDS011;42633;44.494;11.356;2023-04-03T22:21:48;28.23;;;6.63;;
56760;SDS011;42633;44.494;11.356;2023-04-03T22:24:56;15.48;;;4.50;;
56760;SDS011;42633;44.494;11.356;2023-04-03T22:28:02;11.50;;;3.88;;
56760;SDS011;42633;44.494;11.356;2023-04-03T22:31:08;16.20;;;4.60;;
56760;SDS011;42633;44.494;11.356;2023-04-03T22:34:14;13.23;;;4.53;;
56760;SDS011;42633;44.494;11.356;2023-04-03T22:37:26;17.02;;;4.85;;
56760;SDS011;42633;44.494;11.356;2023-04-03T22:40:34;13.98;;;5.07;;
56760;SDS011;42633;44.494;11.356;2023-04-03T22:43:41;13.23;;;5.22;;
56760;SDS011;42633;44.494;11.356;2023-04-03T22:46:46;11.52;;;5.20;;
56760;SDS011;42633;44.494;11.356;2023-04-03T22:49:50;16.02;;;6.05;;
56760;SDS011;42633;44.494;11.356;2023-04-03T22:52:56;10.25;;;5.45;;
56760;SDS011;42633;44.494;11.356;2023-04-03T22:59:49;13.00;;;5.82;;
56760;SDS011;42633;44.494;11.356;2023-04-03T23:03:02;12.68;;;5.70;;
56760;SDS011;42633;44.494;11.356;2023-04-03T23:06:08;12.18;;;5.45;;
56760;SDS011;42633;44.494;11.356;2023-04-03T23:09:24;11.35;;;5.20;;
56760;SDS011;42633;44.494;11.356;2023-04-03T23:12:29;11.70;;;5.15;;
56760;SDS011;42633;44.494;11.356;2023-04-03T23:15:44;22.80;;;6.97;;
56760;SDS011;42633;44.494;11.356;2023-04-03T23:18:57;13.05;;;5.47;;
56760;SDS011;42633;44.494;11.356;2023-04-03T23:22:02;13.02;;;5.20;;
56760;SDS011;42633;44.494;11.356;2023-04-03T23:25:08;10.45;;;5.18;;
56760;SDS011;42633;44.494;11.356;2023-04-03T23:28:13;11.45;;;5.05;;
56760;SDS011;42633;44.494;11.356;2023-04-03T23:31:17;10.88;;;4.15;;
56760;SDS011;42633;44.494;11.356;2023-04-03T23:34:21;10.15;;;4.32;;
56760;SDS011;42633;44.494;11.356;2023-04-03T23:37:30;14.40;;;4.63;;
56760;SDS011;42633;44.494;11.356;2023-04-03T23:40:35;15.50;;;4.55;;
56760;SDS011;42633;44.494;11.356;2023-04-03T23:43:40;8.98;;;3.80;;
56760;SDS011;42633;44.494;11.356;2023-04-03T23:46:46;11.57;;;3.42;;
56760;SDS011;42633;44.494;11.356;2023-04-03T23:49:50;14.85;;;3.53;;
56760;SDS011;42633;44.494;11.356;2023-04-03T23:52:57;10.73;;;4.63;;
56760;SDS011;42633;44.494;11.356;2023-04-03T23:56:04;6.55;;;3.33;;
56760;SDS011;42633;44.494;11.356;2023-04-03T23:59:16;15.20;;;3.50;;
